createdAt,value
2019-04-30T00:00:02.591Z,7.61
2019-04-30T00:01:07.465Z,7.62
2019-04-30T00:02:10.040Z,7.64
2019-04-30T00:03:17.971Z,7.65
2019-04-30T00:04:18.598Z,7.66
2019-04-30T00:05:22.848Z,7.67
2019-04-30T00:06:34.082Z,7.68
2019-04-30T00:07:31.410Z,7.69
2019-04-30T00:08:39.143Z,7.70
2019-04-30T00:09:39.957Z,7.68
2019-04-30T00:10:45.390Z,7.66
2019-04-30T00:11:50.736Z,7.62
2019-04-30T00:12:52.519Z,7.59
2019-04-30T00:13:58.861Z,7.56
2019-04-30T00:15:01.126Z,7.53
2019-04-30T00:16:05.448Z,7.50
2019-04-30T00:17:10.779Z,7.48
2019-04-30T00:18:15.557Z,7.46
2019-04-30T00:19:19.771Z,7.45
2019-04-30T00:20:22.262Z,7.44
2019-04-30T00:21:26.575Z,7.45
2019-04-30T00:22:34.071Z,7.47
2019-04-30T00:23:35.982Z,7.49
2019-04-30T00:24:39.793Z,7.51
2019-04-30T00:25:43.572Z,7.55
2019-04-30T00:26:52.275Z,7.57
2019-04-30T00:27:52.020Z,7.60
2019-04-30T00:28:56.311Z,7.62
2019-04-30T00:30:04.767Z,7.64
2019-04-30T00:31:05.499Z,7.66
2019-04-30T00:32:08.962Z,7.68
2019-04-30T00:33:15.261Z,7.69
2019-04-30T00:34:17.445Z,7.68
2019-04-30T00:35:21.679Z,7.66
2019-04-30T00:36:28.930Z,7.65
2019-04-30T00:37:30.104Z,7.64
2019-04-30T00:38:37.833Z,7.63
2019-04-30T00:39:38.743Z,7.62
2019-04-30T00:40:44.686Z,7.62
2019-04-30T00:41:47.590Z,7.61
2019-04-30T00:42:51.411Z,7.60
2019-04-30T00:43:55.699Z,7.59
2019-04-30T00:45:06.771Z,7.58
2019-04-30T00:46:05.029Z,7.58
2019-04-30T00:47:08.515Z,7.57
2019-04-30T00:48:19.758Z,7.54
2019-04-30T00:49:22.899Z,7.53
2019-04-30T00:50:21.424Z,7.52
2019-04-30T00:51:26.169Z,7.52
2019-04-30T00:52:33.852Z,7.52
2019-04-30T00:53:35.809Z,7.53
2019-04-30T00:54:38.371Z,7.53
2019-04-30T00:55:44.994Z,7.54
2019-04-30T00:56:46.835Z,7.55
2019-04-30T00:57:51.050Z,7.56
2019-04-30T00:58:57.773Z,7.59
2019-04-30T00:59:59.609Z,7.61
2019-04-30T01:01:06.837Z,7.62
2019-04-30T01:02:08.051Z,7.63
2019-04-30T01:03:12.223Z,7.62
2019-04-30T01:04:19.354Z,7.61
2019-04-30T01:05:20.779Z,7.60
2019-04-30T01:06:28.588Z,7.60
2019-04-30T01:07:29.376Z,7.60
2019-04-30T01:08:33.608Z,7.60
2019-04-30T01:09:39.625Z,7.59
2019-04-30T01:10:42.173Z,7.59
2019-04-30T01:11:48.109Z,7.59
2019-04-30T01:12:50.680Z,7.58
2019-04-30T01:13:54.938Z,7.58
2019-04-30T01:15:01.683Z,7.57
2019-04-30T01:16:03.319Z,7.56
2019-04-30T01:17:10.808Z,7.55
2019-04-30T01:18:11.742Z,7.54
2019-04-30T01:19:27.518Z,7.52
2019-04-30T01:20:24.101Z,7.47
2019-04-30T01:21:24.606Z,7.44
2019-04-30T01:22:32.773Z,7.40
2019-04-30T01:23:32.960Z,7.37
2019-04-30T01:24:38.708Z,7.35
2019-04-30T01:25:43.276Z,7.32
2019-04-30T01:26:45.821Z,7.29
2019-04-30T01:27:50.070Z,7.26
2019-04-30T01:28:58.479Z,7.25
2019-04-30T01:29:58.651Z,7.25
2019-04-30T01:31:02.797Z,7.25
2019-04-30T01:32:10.459Z,7.27
2019-04-30T01:33:11.383Z,7.28
2019-04-30T01:34:15.631Z,7.31
2019-04-30T01:35:23.882Z,7.32
2019-04-30T01:36:24.000Z,7.31
2019-04-30T01:37:32.339Z,7.31
2019-04-30T01:38:32.436Z,7.30
2019-04-30T01:39:36.789Z,7.30
2019-04-30T01:40:42.755Z,7.29
2019-04-30T01:41:45.378Z,7.28
2019-04-30T01:42:51.617Z,7.26
2019-04-30T01:43:53.867Z,7.25
2019-04-30T01:44:58.977Z,7.24
2019-04-30T01:46:12.216Z,7.24
2019-04-30T01:47:06.502Z,7.23
2019-04-30T01:48:12.670Z,7.23
2019-04-30T01:49:15.139Z,7.23
2019-04-30T01:50:19.508Z,7.24
2019-04-30T01:51:23.499Z,7.25
2019-04-30T01:52:29.145Z,7.26
2019-04-30T01:53:31.866Z,7.27
2019-04-30T01:54:36.159Z,7.26
2019-04-30T01:55:41.500Z,7.27
2019-04-30T01:56:44.682Z,7.26
2019-04-30T01:57:49.165Z,7.25
2019-04-30T01:58:53.175Z,7.24
2019-04-30T01:59:58.263Z,7.26
2019-04-30T02:01:01.676Z,7.27
2019-04-30T02:02:05.838Z,7.27
2019-04-30T02:03:11.278Z,7.29
2019-04-30T02:04:14.411Z,7.30
2019-04-30T02:05:18.936Z,7.32
2019-04-30T02:06:22.909Z,7.34
2019-04-30T02:07:28.738Z,7.35
2019-04-30T02:08:31.420Z,7.35
2019-04-30T02:09:35.666Z,7.33
2019-04-30T02:10:40.380Z,7.32
2019-04-30T02:11:44.182Z,7.31
2019-04-30T02:12:49.354Z,7.31
2019-04-30T02:13:52.780Z,7.31
2019-04-30T02:14:56.867Z,7.32
2019-04-30T02:16:01.199Z,7.32
2019-04-30T02:17:05.572Z,7.31
2019-04-30T02:18:09.655Z,7.31
2019-04-30T02:19:14.897Z,7.30
2019-04-30T02:20:18.805Z,7.28
2019-04-30T02:21:23.037Z,7.26
2019-04-30T02:22:30.948Z,7.25
2019-04-30T02:23:31.548Z,7.25
2019-04-30T02:24:35.810Z,7.24
2019-04-30T02:25:40.004Z,7.24
2019-04-30T02:26:44.284Z,7.24
2019-04-30T02:27:48.912Z,7.23
2019-04-30T02:28:52.834Z,7.22
2019-04-30T02:29:57.059Z,7.20
2019-04-30T02:31:01.384Z,7.19
2019-04-30T02:32:05.603Z,7.19
2019-04-30T02:33:09.839Z,7.18
2019-04-30T02:34:14.038Z,7.18
2019-04-30T02:35:19.412Z,7.17
2019-04-30T02:36:22.606Z,7.16
2019-04-30T02:37:26.831Z,7.15
2019-04-30T02:38:31.037Z,7.14
2019-04-30T02:39:35.309Z,7.13
2019-04-30T02:40:42.465Z,7.13
2019-04-30T02:41:43.640Z,7.13
2019-04-30T02:42:49.771Z,7.14
2019-04-30T02:43:52.278Z,7.14
2019-04-30T02:44:56.496Z,7.14
2019-04-30T02:46:00.939Z,7.15
2019-04-30T02:47:05.087Z,7.16
2019-04-30T02:48:11.637Z,7.16
2019-04-30T02:49:13.615Z,7.17
2019-04-30T02:50:22.278Z,7.17
2019-04-30T02:51:22.888Z,7.16
2019-04-30T02:52:26.371Z,7.16
2019-04-30T02:53:30.513Z,7.14
2019-04-30T02:54:34.781Z,7.10
2019-04-30T02:55:40.310Z,7.08
2019-04-30T02:56:43.216Z,7.07
2019-04-30T02:57:49.916Z,7.06
2019-04-30T02:58:52.188Z,7.07
2019-04-30T02:59:56.482Z,7.09
2019-04-30T03:01:00.734Z,7.11
2019-04-30T03:02:04.986Z,7.13
2019-04-30T03:03:10.226Z,7.15
2019-04-30T03:04:13.358Z,7.17
2019-04-30T03:05:20.258Z,7.18
2019-04-30T03:06:23.823Z,7.19
2019-04-30T03:07:26.141Z,7.19
2019-04-30T03:08:30.280Z,7.18
2019-04-30T03:09:34.514Z,7.18
2019-04-30T03:10:40.158Z,7.18
2019-04-30T03:11:43.057Z,7.16
2019-04-30T03:12:49.700Z,7.12
2019-04-30T03:13:51.485Z,7.07
2019-04-30T03:14:55.695Z,7.03
2019-04-30T03:16:00.015Z,6.99
2019-04-30T03:17:04.343Z,6.94
2019-04-30T03:18:09.861Z,6.91
2019-04-30T03:19:13.046Z,6.89
2019-04-30T03:20:30.979Z,6.88
2019-04-30T03:21:21.411Z,6.86
2019-04-30T03:22:25.692Z,6.82
2019-04-30T03:23:29.925Z,6.79
2019-04-30T03:24:34.069Z,6.76
2019-04-30T03:25:40.578Z,6.73
2019-04-30T03:26:42.481Z,6.72
2019-04-30T03:27:46.806Z,6.73
2019-04-30T03:28:51.012Z,6.74
2019-04-30T03:29:55.173Z,6.74
2019-04-30T03:31:04.088Z,6.74
2019-04-30T03:32:03.841Z,6.73
2019-04-30T03:33:12.174Z,6.71
2019-04-30T03:34:18.319Z,6.67
2019-04-30T03:35:16.373Z,6.61
2019-04-30T03:36:21.965Z,6.54
2019-04-30T03:37:24.925Z,6.50
2019-04-30T03:38:30.111Z,6.48
2019-04-30T03:39:34.105Z,6.47
2019-04-30T03:40:40.215Z,6.43
2019-04-30T03:41:41.876Z,6.36
2019-04-30T03:42:46.058Z,6.29
2019-04-30T03:43:50.537Z,6.24
2019-04-30T03:44:54.501Z,6.20
2019-04-30T03:45:59.315Z,6.19
2019-04-30T03:47:02.999Z,6.20
2019-04-30T03:48:09.953Z,6.22
2019-04-30T03:49:13.417Z,6.24
2019-04-30T03:50:15.019Z,6.26
2019-04-30T03:51:19.893Z,6.30
2019-04-30T03:52:23.527Z,6.33
2019-04-30T03:53:29.762Z,6.33
2019-04-30T03:54:31.963Z,6.33
2019-04-30T03:55:36.115Z,6.35
2019-04-30T03:56:40.389Z,6.37
2019-04-30T03:57:44.619Z,6.38
2019-04-30T03:58:50.317Z,6.40
2019-04-30T03:59:53.121Z,6.43
2019-04-30T04:01:00.176Z,6.45
2019-04-30T04:02:01.590Z,6.47
2019-04-30T04:03:05.868Z,6.49
2019-04-30T04:04:10.245Z,6.51
2019-04-30T04:05:14.299Z,6.54
2019-04-30T04:06:21.222Z,6.57
2019-04-30T04:07:22.852Z,6.60
2019-04-30T04:08:29.355Z,6.63
2019-04-30T04:09:31.276Z,6.66
2019-04-30T04:10:35.552Z,6.70
2019-04-30T04:11:39.755Z,6.75
2019-04-30T04:12:43.904Z,6.80
2019-04-30T04:13:49.571Z,6.85
2019-04-30T04:14:52.492Z,6.88
2019-04-30T04:15:56.613Z,6.91
2019-04-30T04:17:00.748Z,6.94
2019-04-30T04:18:04.999Z,6.98
2019-04-30T04:19:09.685Z,7.01
2019-04-30T04:20:13.513Z,7.04
2019-04-30T04:21:20.463Z,7.08
2019-04-30T04:22:22.090Z,7.11
2019-04-30T04:23:26.350Z,7.14
2019-04-30T04:24:30.491Z,7.18
2019-04-30T04:25:34.817Z,7.22
2019-04-30T04:26:43.356Z,7.26
2019-04-30T04:27:43.338Z,7.31
2019-04-30T04:28:49.612Z,7.36
2019-04-30T04:29:51.825Z,7.42
2019-04-30T04:30:56.059Z,7.46
2019-04-30T04:32:00.853Z,7.50
2019-04-30T04:33:04.534Z,7.53
2019-04-30T04:34:09.337Z,7.56
2019-04-30T04:35:13.101Z,7.60
2019-04-30T04:36:17.169Z,7.62
2019-04-30T04:37:21.581Z,7.66
2019-04-30T04:38:25.718Z,7.70
2019-04-30T04:39:29.937Z,7.75
2019-04-30T04:40:34.142Z,7.80
2019-04-30T04:41:39.946Z,7.83
2019-04-30T04:42:42.759Z,7.87
2019-04-30T04:43:47.023Z,7.91
2019-04-30T04:44:51.287Z,7.94
2019-04-30T04:45:55.541Z,7.97
2019-04-30T04:47:00.259Z,8.00
2019-04-30T04:48:03.976Z,8.03
2019-04-30T04:49:08.995Z,8.07
2019-04-30T04:50:12.564Z,8.13
2019-04-30T04:51:31.409Z,8.18
2019-04-30T04:52:21.977Z,8.21
2019-04-30T04:53:25.244Z,8.24
2019-04-30T04:54:30.123Z,8.27
2019-04-30T04:55:33.836Z,8.28
2019-04-30T04:56:39.982Z,8.31
2019-04-30T04:57:42.344Z,8.36
2019-04-30T04:58:46.551Z,8.41
2019-04-30T04:59:50.918Z,8.46
2019-04-30T05:00:55.104Z,8.50
2019-04-30T05:01:59.854Z,8.54
2019-04-30T05:03:03.587Z,8.59
2019-04-30T05:04:11.464Z,8.65
2019-04-30T05:05:12.235Z,8.71
2019-04-30T05:06:16.454Z,8.75
2019-04-30T05:07:20.746Z,8.79
2019-04-30T05:08:25.009Z,8.82
2019-04-30T05:09:29.294Z,8.86
2019-04-30T05:10:33.652Z,8.89
2019-04-30T05:11:39.570Z,8.93
2019-04-30T05:12:42.218Z,8.98
2019-04-30T05:13:46.493Z,9.04
2019-04-30T05:14:50.773Z,9.09
2019-04-30T05:15:55.059Z,9.15
2019-04-30T05:16:59.335Z,9.20
2019-04-30T05:18:03.503Z,9.25
2019-04-30T05:19:08.867Z,9.31
2019-04-30T05:20:12.120Z,9.36
2019-04-30T05:21:16.391Z,9.43
2019-04-30T05:22:20.669Z,9.49
2019-04-30T05:23:24.943Z,9.54
2019-04-30T05:24:29.223Z,9.58
2019-04-30T05:25:33.484Z,9.62
2019-04-30T05:26:38.697Z,9.66
2019-04-30T05:27:42.055Z,9.70
2019-04-30T05:28:48.909Z,9.76
2019-04-30T05:29:50.630Z,9.81
2019-04-30T05:30:54.933Z,9.86
2019-04-30T05:31:59.236Z,9.93
2019-04-30T05:33:03.522Z,10.03
2019-04-30T05:34:10.110Z,10.16
2019-04-30T05:35:12.157Z,10.37
2019-04-30T05:36:16.477Z,10.69
2019-04-30T05:37:22.435Z,11.18
2019-04-30T05:38:25.043Z,11.77
2019-04-30T05:39:29.514Z,12.35
2019-04-30T05:40:33.847Z,12.86
2019-04-30T05:41:38.661Z,13.31
2019-04-30T05:42:42.585Z,13.80
2019-04-30T05:43:48.799Z,14.34
2019-04-30T05:44:51.447Z,14.88
2019-04-30T05:45:55.841Z,15.39
2019-04-30T05:47:00.271Z,15.81
2019-04-30T05:48:04.692Z,16.13
2019-04-30T05:49:09.121Z,16.41
2019-04-30T05:50:13.492Z,16.62
2019-04-30T05:51:19.394Z,16.79
2019-04-30T05:52:22.300Z,16.83
2019-04-30T05:53:28.525Z,16.84
2019-04-30T05:54:31.062Z,16.86
2019-04-30T05:55:35.497Z,16.80
2019-04-30T05:56:42.560Z,16.75
2019-04-30T05:57:53.842Z,16.74
2019-04-30T05:58:49.415Z,16.71
2019-04-30T06:00:06.943Z,16.55
2019-04-30T06:01:09.820Z,16.37
2019-04-30T06:02:13.558Z,16.22
2019-04-30T06:03:27.507Z,16.09
2019-04-30T06:04:25.158Z,15.94
2019-04-30T06:05:28.716Z,15.75
2019-04-30T06:06:33.686Z,15.55
2019-04-30T06:07:39.307Z,15.38
2019-04-30T06:08:41.566Z,15.20
2019-04-30T06:09:45.793Z,14.98
2019-04-30T06:10:51.786Z,14.85
2019-04-30T06:11:54.336Z,14.75
2019-04-30T06:12:59.469Z,14.65
2019-04-30T06:14:02.924Z,14.65
2019-04-30T06:15:08.980Z,14.59
2019-04-30T06:16:11.527Z,14.47
2019-04-30T06:17:15.876Z,14.32
2019-04-30T06:18:20.502Z,14.24
2019-04-30T06:19:24.439Z,14.16
2019-04-30T06:20:28.926Z,14.22
2019-04-30T06:21:33.109Z,14.22
2019-04-30T06:22:38.589Z,14.25
2019-04-30T06:23:41.679Z,14.27
2019-04-30T06:24:45.970Z,14.33
2019-04-30T06:25:57.337Z,14.37
2019-04-30T06:26:54.646Z,14.41
2019-04-30T06:27:58.991Z,14.43
2019-04-30T06:29:03.192Z,14.40
2019-04-30T06:30:11.829Z,14.41
2019-04-30T06:31:11.878Z,14.47
2019-04-30T06:32:16.123Z,14.47
2019-04-30T06:33:20.443Z,14.43
2019-04-30T06:34:24.805Z,14.39
2019-04-30T06:35:29.516Z,14.32
2019-04-30T06:36:33.437Z,14.23
2019-04-30T06:37:39.093Z,14.18
2019-04-30T06:38:41.978Z,14.18
2019-04-30T06:39:46.385Z,14.18
2019-04-30T06:40:50.618Z,14.20
2019-04-30T06:42:04.274Z,14.26
2019-04-30T06:43:00.833Z,14.33
2019-04-30T06:44:03.433Z,14.40
2019-04-30T06:45:09.226Z,14.40
2019-04-30T06:46:12.111Z,14.38
2019-04-30T06:47:16.501Z,14.41
2019-04-30T06:48:20.749Z,14.40
2019-04-30T06:49:24.996Z,14.40
2019-04-30T06:50:29.413Z,14.37
2019-04-30T06:51:33.597Z,14.31
2019-04-30T06:52:38.996Z,14.33
2019-04-30T06:53:42.179Z,14.30
2019-04-30T06:54:46.540Z,14.33
2019-04-30T06:55:50.823Z,14.39
2019-04-30T06:56:55.191Z,14.44
2019-04-30T06:58:11.454Z,14.44
2019-04-30T06:59:03.885Z,14.45
2019-04-30T07:00:09.813Z,14.43
2019-04-30T07:01:12.481Z,14.43
2019-04-30T07:02:16.864Z,14.43
2019-04-30T07:03:21.192Z,14.44
2019-04-30T07:04:25.520Z,14.39
2019-04-30T07:05:29.870Z,14.41
2019-04-30T07:06:37.044Z,14.43
2019-04-30T07:07:41.169Z,14.46
2019-04-30T07:08:51.972Z,14.48
2019-04-30T07:09:53.181Z,14.52
2019-04-30T07:10:55.579Z,14.54
2019-04-30T07:11:55.638Z,14.57
2019-04-30T07:13:00.038Z,14.58
2019-04-30T07:14:04.382Z,14.56
2019-04-30T07:15:08.837Z,14.58
2019-04-30T07:16:12.974Z,14.64
2019-04-30T07:17:17.266Z,14.73
2019-04-30T07:18:21.582Z,14.81
2019-04-30T07:19:34.606Z,14.91
2019-04-30T07:20:33.941Z,15.01
2019-04-30T07:21:36.376Z,15.13
2019-04-30T07:22:45.462Z,15.23
2019-04-30T07:23:43.319Z,15.30
2019-04-30T07:24:49.508Z,15.34
2019-04-30T07:25:52.052Z,15.37
2019-04-30T07:26:59.705Z,15.40
2019-04-30T07:28:00.677Z,15.44
2019-04-30T07:29:04.971Z,15.44
2019-04-30T07:30:09.956Z,15.46
2019-04-30T07:31:14.853Z,15.47
2019-04-30T07:32:19.682Z,15.49
2019-04-30T07:33:22.401Z,15.55
2019-04-30T07:34:26.686Z,15.60
2019-04-30T07:35:31.098Z,15.64
2019-04-30T07:36:48.360Z,15.70
2019-04-30T07:37:39.763Z,15.79
2019-04-30T07:38:51.788Z,15.90
2019-04-30T07:39:49.342Z,15.98
2019-04-30T07:40:52.859Z,16.04
2019-04-30T07:41:59.788Z,16.03
2019-04-30T07:43:01.641Z,16.06
2019-04-30T07:44:05.956Z,16.08
2019-04-30T07:45:10.221Z,16.13
2019-04-30T07:46:14.538Z,16.23
2019-04-30T07:47:19.616Z,16.30
2019-04-30T07:48:26.408Z,16.45
2019-04-30T07:49:46.442Z,16.52
2019-04-30T07:50:32.751Z,16.62
2019-04-30T07:51:38.848Z,16.65
2019-04-30T07:52:57.735Z,16.63
2019-04-30T07:53:44.986Z,16.54
2019-04-30T07:54:51.829Z,16.47
2019-04-30T07:55:53.737Z,16.42
2019-04-30T07:57:00.333Z,16.40
2019-04-30T07:58:02.490Z,16.42
2019-04-30T07:59:06.891Z,16.46
2019-04-30T08:00:11.187Z,16.45
2019-04-30T08:01:15.589Z,16.44
2019-04-30T08:02:20.859Z,16.42
2019-04-30T08:03:24.575Z,16.40
2019-04-30T08:04:29.271Z,16.38
2019-04-30T08:05:32.986Z,16.33
2019-04-30T08:06:37.276Z,16.26
2019-04-30T08:07:41.737Z,16.19
2019-04-30T08:08:46.043Z,16.16
2019-04-30T08:09:50.322Z,16.14
2019-04-30T08:10:54.726Z,16.15
2019-04-30T08:11:59.224Z,16.19
2019-04-30T08:13:10.097Z,16.23
2019-04-30T08:14:09.804Z,16.24
2019-04-30T08:15:12.062Z,16.27
2019-04-30T08:16:18.601Z,16.29
2019-04-30T08:17:20.745Z,16.29
2019-04-30T08:18:25.039Z,16.31
2019-04-30T08:19:29.354Z,16.31
2019-04-30T08:20:33.736Z,16.29
2019-04-30T08:21:38.722Z,16.30
2019-04-30T08:22:42.467Z,16.34
2019-04-30T08:23:48.795Z,16.34
2019-04-30T08:24:51.025Z,16.33
2019-04-30T08:25:55.453Z,16.35
2019-04-30T08:27:01.330Z,16.37
2019-04-30T08:28:04.127Z,16.38
2019-04-30T08:29:09.600Z,16.41
2019-04-30T08:30:23.927Z,16.41
2019-04-30T08:31:19.395Z,16.44
2019-04-30T08:32:21.698Z,16.46
2019-04-30T08:33:26.014Z,16.46
2019-04-30T08:34:30.323Z,16.45
2019-04-30T08:35:34.754Z,16.46
2019-04-30T08:36:39.001Z,16.47
2019-04-30T08:37:43.369Z,16.50
2019-04-30T08:38:49.465Z,16.52
2019-04-30T08:39:52.044Z,16.54
2019-04-30T08:40:58.800Z,16.53
2019-04-30T08:42:00.674Z,16.54
2019-04-30T08:43:05.093Z,16.53
2019-04-30T08:44:09.537Z,16.54
2019-04-30T08:45:13.771Z,16.55
2019-04-30T08:46:19.019Z,16.53
2019-04-30T08:47:22.473Z,16.52
2019-04-30T08:48:43.851Z,16.54
2019-04-30T08:49:31.513Z,16.55
2019-04-30T08:50:35.538Z,16.57
2019-04-30T08:51:40.502Z,16.62
2019-04-30T08:52:44.281Z,16.65
2019-04-30T08:53:48.800Z,16.70
2019-04-30T08:54:52.984Z,16.74
2019-04-30T08:55:59.145Z,16.80
2019-04-30T08:57:01.682Z,16.85
2019-04-30T08:58:10.074Z,16.88
2019-04-30T08:59:11.236Z,16.93
2019-04-30T09:00:15.134Z,16.99
2019-04-30T09:01:19.723Z,17.02
2019-04-30T09:02:23.460Z,17.02
2019-04-30T09:03:29.563Z,17.01
2019-04-30T09:04:32.153Z,17.03
2019-04-30T09:05:38.524Z,17.05
2019-04-30T09:06:41.033Z,17.07
2019-04-30T09:07:45.201Z,17.09
2019-04-30T09:08:49.585Z,17.10
2019-04-30T09:09:53.972Z,17.11
2019-04-30T09:10:59.535Z,17.08
2019-04-30T09:12:02.594Z,17.08
2019-04-30T09:13:09.032Z,17.09
2019-04-30T09:14:11.383Z,17.12
2019-04-30T09:15:15.761Z,17.16
2019-04-30T09:16:20.160Z,17.23
2019-04-30T09:17:24.527Z,17.28
2019-04-30T09:18:29.252Z,17.29
2019-04-30T09:19:33.183Z,17.34
2019-04-30T09:20:39.108Z,17.42
2019-04-30T09:21:41.998Z,17.51
2019-04-30T09:22:46.357Z,17.61
2019-04-30T09:23:52.857Z,17.68
2019-04-30T09:24:55.077Z,17.70
2019-04-30T09:25:59.357Z,17.69
2019-04-30T09:27:03.815Z,17.69
2019-04-30T09:28:08.673Z,17.70
2019-04-30T09:29:12.553Z,17.67
2019-04-30T09:30:18.701Z,17.63
2019-04-30T09:31:21.340Z,17.56
2019-04-30T09:32:25.658Z,17.54
2019-04-30T09:33:29.989Z,17.53
2019-04-30T09:34:34.449Z,17.54
2019-04-30T09:35:39.512Z,17.59
2019-04-30T09:36:43.182Z,17.63
2019-04-30T09:37:49.608Z,17.67
2019-04-30T09:38:51.835Z,17.69
2019-04-30T09:39:56.263Z,17.69
2019-04-30T09:41:00.614Z,17.71
2019-04-30T09:42:05.032Z,17.72
2019-04-30T09:43:09.374Z,17.73
2019-04-30T09:44:13.780Z,17.75
2019-04-30T09:45:18.671Z,17.75
2019-04-30T09:46:26.993Z,17.77
2019-04-30T09:47:26.899Z,17.79
2019-04-30T09:48:31.595Z,17.77
2019-04-30T09:49:35.800Z,17.79
2019-04-30T09:50:40.617Z,17.81
2019-04-30T09:51:44.633Z,17.69
2019-04-30T09:52:49.680Z,17.68
2019-04-30T09:53:58.549Z,17.68
2019-04-30T09:54:59.435Z,17.72
2019-04-30T09:56:02.156Z,17.76
2019-04-30T09:57:06.557Z,17.81
2019-04-30T09:58:17.203Z,17.85
2019-04-30T09:59:15.304Z,17.83
2019-04-30T10:00:19.738Z,17.81
2019-04-30T10:01:24.141Z,17.74
2019-04-30T10:02:29.116Z,17.68
2019-04-30T10:03:33.562Z,17.62
2019-04-30T10:04:39.501Z,17.62
2019-04-30T10:05:41.483Z,17.63
2019-04-30T10:06:45.914Z,17.67
2019-04-30T10:07:50.300Z,17.73
2019-04-30T10:08:54.679Z,17.76
2019-04-30T10:09:59.188Z,17.76
2019-04-30T10:11:03.423Z,17.78
2019-04-30T10:12:09.621Z,17.79
2019-04-30T10:13:12.116Z,17.83
2019-04-30T10:14:16.546Z,17.87
2019-04-30T10:15:20.881Z,17.91
2019-04-30T10:16:25.217Z,17.95
2019-04-30T10:17:29.637Z,17.96
2019-04-30T10:18:34.050Z,17.95
2019-04-30T10:19:39.326Z,17.95
2019-04-30T10:20:42.760Z,17.98
2019-04-30T10:21:48.921Z,17.98
2019-04-30T10:22:51.476Z,18.02
2019-04-30T10:24:10.282Z,18.08
2019-04-30T10:25:00.264Z,18.16
2019-04-30T10:26:04.650Z,18.23
2019-04-30T10:27:12.927Z,18.28
2019-04-30T10:28:13.466Z,18.28
2019-04-30T10:29:17.828Z,18.26
2019-04-30T10:30:22.225Z,18.27
2019-04-30T10:31:26.556Z,18.18
2019-04-30T10:32:31.002Z,18.12
2019-04-30T10:33:35.307Z,18.12
2019-04-30T10:34:39.717Z,18.15
2019-04-30T10:35:44.033Z,18.20
2019-04-30T10:36:49.522Z,18.23
2019-04-30T10:37:52.894Z,18.26
2019-04-30T10:38:59.332Z,18.25
2019-04-30T10:40:01.681Z,18.27
2019-04-30T10:41:06.000Z,18.32
2019-04-30T10:42:10.400Z,18.43
2019-04-30T10:43:14.791Z,18.56
2019-04-30T10:44:19.118Z,18.65
2019-04-30T10:45:23.516Z,18.68
2019-04-30T10:46:27.901Z,18.61
2019-04-30T10:47:32.755Z,18.59
2019-04-30T10:48:36.590Z,18.61
2019-04-30T10:49:40.976Z,18.63
2019-04-30T10:50:45.379Z,18.65
2019-04-30T10:51:49.800Z,18.64
2019-04-30T10:52:54.189Z,18.64
2019-04-30T10:53:59.213Z,18.62
2019-04-30T10:55:04.511Z,18.63
2019-04-30T10:56:09.580Z,18.65
2019-04-30T10:57:11.678Z,18.64
2019-04-30T10:58:16.054Z,18.65
2019-04-30T10:59:20.444Z,18.62
2019-04-30T11:00:24.835Z,18.63
2019-04-30T11:01:29.262Z,18.64
2019-04-30T11:02:33.435Z,18.68
2019-04-30T11:03:39.091Z,18.70
2019-04-30T11:04:42.203Z,18.76
2019-04-30T11:05:46.596Z,18.83
2019-04-30T11:06:50.927Z,18.88
2019-04-30T11:07:55.427Z,18.86
2019-04-30T11:08:59.777Z,18.89
2019-04-30T11:10:04.191Z,18.95
2019-04-30T11:11:08.478Z,19.04
2019-04-30T11:12:15.953Z,19.10
2019-04-30T11:13:19.403Z,19.08
2019-04-30T11:14:23.716Z,19.05
2019-04-30T11:15:29.256Z,19.01
2019-04-30T11:16:32.425Z,18.99
2019-04-30T11:17:37.055Z,18.98
2019-04-30T11:18:41.449Z,19.00
2019-04-30T11:19:45.888Z,19.03
2019-04-30T11:20:50.301Z,19.03
2019-04-30T11:21:54.565Z,19.05
2019-04-30T11:22:59.108Z,19.06
2019-04-30T11:24:03.387Z,19.09
2019-04-30T11:25:09.771Z,19.13
2019-04-30T11:26:12.654Z,19.14
2019-04-30T11:27:17.109Z,19.19
2019-04-30T11:28:21.396Z,19.23
2019-04-30T11:29:25.353Z,19.25
2019-04-30T11:30:30.155Z,19.30
2019-04-30T11:31:34.250Z,19.43
2019-04-30T11:32:38.763Z,19.53
2019-04-30T11:33:43.045Z,19.63
2019-04-30T11:34:47.253Z,19.70
2019-04-30T11:36:02.024Z,19.77
2019-04-30T11:36:56.126Z,19.86
2019-04-30T11:38:00.563Z,19.86
2019-04-30T11:39:04.830Z,19.92
2019-04-30T11:40:09.223Z,19.99
2019-04-30T11:41:13.699Z,20.05
2019-04-30T11:42:18.027Z,20.12
2019-04-30T11:43:22.524Z,20.11
2019-04-30T11:44:31.207Z,20.20
2019-04-30T11:45:31.358Z,20.23
2019-04-30T11:46:35.699Z,20.32
2019-04-30T11:47:40.071Z,20.42
2019-04-30T11:48:44.447Z,20.55
2019-04-30T11:49:48.795Z,20.68
2019-04-30T11:50:53.289Z,20.87
2019-04-30T11:51:57.709Z,21.04
2019-04-30T11:53:19.516Z,21.19
2019-04-30T11:54:06.421Z,21.37
2019-04-30T11:55:10.870Z,21.43
2019-04-30T11:56:15.208Z,21.29
2019-04-30T11:57:19.676Z,21.29
2019-04-30T11:58:24.036Z,21.33
2019-04-30T11:59:29.762Z,21.45
2019-04-30T12:00:32.972Z,21.54
2019-04-30T12:01:37.287Z,21.74
2019-04-30T12:02:41.703Z,21.84
2019-04-30T12:03:46.058Z,21.87
2019-04-30T12:04:50.455Z,21.88
2019-04-30T12:05:54.966Z,21.82
2019-04-30T12:06:59.346Z,21.77
2019-04-30T12:08:03.729Z,21.73
2019-04-30T12:09:09.149Z,21.62
2019-04-30T12:10:12.512Z,21.53
2019-04-30T12:11:16.848Z,21.54
2019-04-30T12:12:21.233Z,21.54
2019-04-30T12:13:25.619Z,21.55
2019-04-30T12:14:29.998Z,21.60
2019-04-30T12:15:34.337Z,21.59
2019-04-30T12:16:39.553Z,21.56
2019-04-30T12:17:43.229Z,21.53
2019-04-30T12:18:47.581Z,21.53
2019-04-30T12:19:51.939Z,21.59
2019-04-30T12:20:56.334Z,21.63
2019-04-30T12:22:00.758Z,21.70
2019-04-30T12:23:05.144Z,21.79
2019-04-30T12:24:09.505Z,21.83
2019-04-30T12:25:13.900Z,21.82
2019-04-30T12:26:19.050Z,21.73
2019-04-30T12:27:22.677Z,21.67
2019-04-30T12:28:27.441Z,21.65
2019-04-30T12:29:31.525Z,21.62
2019-04-30T12:30:35.908Z,21.71
2019-04-30T12:31:40.313Z,21.69
2019-04-30T12:32:44.708Z,21.74
2019-04-30T12:33:49.139Z,21.77
2019-04-30T12:34:53.493Z,21.90
2019-04-30T12:35:59.594Z,22.02
2019-04-30T12:37:02.453Z,22.15
2019-04-30T12:38:08.456Z,22.25
2019-04-30T12:39:11.257Z,22.30
2019-04-30T12:40:26.593Z,22.29
2019-04-30T12:41:20.073Z,22.28
2019-04-30T12:42:24.474Z,22.34
2019-04-30T12:43:28.877Z,22.38
2019-04-30T12:44:33.271Z,22.46
2019-04-30T12:45:39.385Z,22.56
2019-04-30T12:46:42.198Z,22.49
2019-04-30T12:47:46.545Z,22.35
2019-04-30T12:48:50.996Z,22.26
2019-04-30T12:49:55.418Z,22.15
2019-04-30T12:50:59.801Z,22.15
2019-04-30T12:52:04.213Z,22.20
2019-04-30T12:53:09.431Z,22.26
2019-04-30T12:54:13.116Z,22.37
2019-04-30T12:55:17.441Z,22.50
2019-04-30T12:56:27.001Z,22.61
2019-04-30T12:57:26.205Z,22.63
2019-04-30T12:58:30.694Z,22.55
2019-04-30T12:59:35.138Z,22.49
2019-04-30T13:00:39.568Z,22.45
2019-04-30T13:01:44.066Z,22.32
2019-04-30T13:02:48.499Z,22.19
2019-04-30T13:03:58.374Z,22.18
2019-04-30T13:05:00.249Z,22.10
2019-04-30T13:06:02.671Z,22.01
2019-04-30T13:07:06.557Z,22.00
2019-04-30T13:08:10.991Z,22.01
2019-04-30T13:09:15.419Z,21.99
2019-04-30T13:10:19.665Z,21.94
2019-04-30T13:11:24.370Z,22.02
2019-04-30T13:12:28.519Z,22.08
2019-04-30T13:13:33.139Z,22.10
2019-04-30T13:14:51.130Z,22.11
2019-04-30T13:15:41.328Z,22.14
2019-04-30T13:16:45.811Z,22.09
2019-04-30T13:17:50.244Z,22.04
2019-04-30T13:18:54.556Z,21.98
2019-04-30T13:19:58.959Z,21.93
2019-04-30T13:21:03.474Z,21.84
2019-04-30T13:22:08.998Z,21.74
2019-04-30T13:23:12.207Z,21.62
2019-04-30T13:24:16.717Z,21.52
2019-04-30T13:25:29.922Z,21.47
2019-04-30T13:26:25.424Z,21.36
2019-04-30T13:27:29.815Z,21.25
2019-04-30T13:28:34.182Z,21.23
2019-04-30T13:29:38.644Z,21.16
2019-04-30T13:30:42.968Z,21.08
2019-04-30T13:31:50.111Z,20.98
2019-04-30T13:32:51.809Z,20.88
2019-04-30T13:33:59.057Z,20.78
2019-04-30T13:35:01.053Z,20.67
2019-04-30T13:36:04.872Z,20.59
2019-04-30T13:37:09.373Z,20.54
2019-04-30T13:38:13.687Z,20.44
2019-04-30T13:39:19.520Z,20.33
2019-04-30T13:40:22.447Z,20.29
2019-04-30T13:41:26.891Z,20.28
2019-04-30T13:42:31.229Z,20.27
2019-04-30T13:43:35.572Z,20.31
2019-04-30T13:44:39.914Z,20.34
2019-04-30T13:45:44.299Z,20.35
2019-04-30T13:46:48.650Z,20.36
2019-04-30T13:47:53.054Z,20.34
2019-04-30T13:48:57.401Z,20.33
2019-04-30T13:50:01.871Z,20.31
2019-04-30T13:51:06.278Z,20.29
2019-04-30T14:23:18.790Z,19.20
2019-04-30T14:24:21.421Z,19.18
2019-04-30T14:25:25.732Z,19.15
2019-04-30T14:26:30.089Z,19.12
2019-04-30T14:27:34.432Z,19.09
2019-04-30T14:28:39.170Z,19.09
2019-04-30T14:29:43.112Z,19.09